sensor_id;sensor_type;location;lat;lon;timestamp;P1;durP1;ratioP1;P2;durP2;ratioP2
14167;SDS011;7163;50.626;12.922;2023-02-15T00:03:07;2.67;;;2.47;;
14167;SDS011;7163;50.626;12.922;2023-02-15T00:08:08;2.53;;;2.33;;
14167;SDS011;7163;50.626;12.922;2023-02-15T00:13:08;3.50;;;2.60;;
14167;SDS011;7163;50.626;12.922;2023-02-15T00:18:08;3.00;;;2.53;;
14167;SDS011;7163;50.626;12.922;2023-02-15T00:23:09;3.73;;;2.50;;
14167;SDS011;7163;50.626;12.922;2023-02-15T00:28:09;3.40;;;2.50;;
14167;SDS011;7163;50.626;12.922;2023-02-15T00:33:09;5.00;;;2.60;;
14167;SDS011;7163;50.626;12.922;2023-02-15T00:38:10;3.03;;;2.77;;
14167;SDS011;7163;50.626;12.922;2023-02-15T00:43:10;3.10;;;2.40;;
14167;SDS011;7163;50.626;12.922;2023-02-15T00:48:11;5.97;;;3.67;;
14167;SDS011;7163;50.626;12.922;2023-02-15T00:53:11;2.73;;;2.50;;
14167;SDS011;7163;50.626;12.922;2023-02-15T00:58:12;2.77;;;2.53;;
14167;SDS011;7163;50.626;12.922;2023-02-15T01:03:14;3.43;;;2.67;;
14167;SDS011;7163;50.626;12.922;2023-02-15T01:08:16;3.00;;;2.33;;
14167;SDS011;7163;50.626;12.922;2023-02-15T01:13:16;4.17;;;2.27;;
14167;SDS011;7163;50.626;12.922;2023-02-15T01:18:16;4.10;;;2.40;;
14167;SDS011;7163;50.626;12.922;2023-02-15T01:23:17;2.93;;;2.40;;
14167;SDS011;7163;50.626;12.922;2023-02-15T01:28:17;6.60;;;2.50;;
14167;SDS011;7163;50.626;12.922;2023-02-15T01:33:18;2.60;;;2.40;;
14167;SDS011;7163;50.626;12.922;2023-02-15T01:38:18;3.77;;;2.30;;
14167;SDS011;7163;50.626;12.922;2023-02-15T01:43:19;2.77;;;2.37;;
14167;SDS011;7163;50.626;12.922;2023-02-15T01:48:20;2.80;;;2.30;;
14167;SDS011;7163;50.626;12.922;2023-02-15T01:53:24;2.87;;;2.43;;
14167;SDS011;7163;50.626;12.922;2023-02-15T01:58:27;2.73;;;2.53;;
14167;SDS011;7163;50.626;12.922;2023-02-15T02:03:41;2.53;;;2.30;;
14167;SDS011;7163;50.626;12.922;2023-02-15T02:08:47;2.27;;;2.13;;
14167;SDS011;7163;50.626;12.922;2023-02-15T02:13:48;2.50;;;2.30;;
14167;SDS011;7163;50.626;12.922;2023-02-15T02:35:30;3.20;;;2.43;;
14167;SDS011;7163;50.626;12.922;2023-02-15T02:40:39;3.47;;;2.40;;
14167;SDS011;7163;50.626;12.922;2023-02-15T02:45:58;4.40;;;2.20;;
14167;SDS011;7163;50.626;12.922;2023-02-15T02:51:04;4.20;;;2.30;;
14167;SDS011;7163;50.626;12.922;2023-02-15T03:01:38;3.53;;;2.40;;
14167;SDS011;7163;50.626;12.922;2023-02-15T03:06:42;2.50;;;2.30;;
14167;SDS011;7163;50.626;12.922;2023-02-15T03:11:47;3.83;;;2.30;;
14167;SDS011;7163;50.626;12.922;2023-02-15T03:16:48;2.63;;;2.43;;
14167;SDS011;7163;50.626;12.922;2023-02-15T03:21:50;2.50;;;2.30;;
14167;SDS011;7163;50.626;12.922;2023-02-15T03:26:57;3.87;;;2.63;;
14167;SDS011;7163;50.626;12.922;2023-02-15T03:31:59;6.97;;;3.27;;
14167;SDS011;7163;50.626;12.922;2023-02-15T03:37:10;4.53;;;2.80;;
14167;SDS011;7163;50.626;12.922;2023-02-15T03:47:20;3.00;;;2.50;;
14167;SDS011;7163;50.626;12.922;2023-02-15T03:52:24;3.57;;;2.60;;
14167;SDS011;7163;50.626;12.922;2023-02-15T03:57:26;3.07;;;2.77;;
14167;SDS011;7163;50.626;12.922;2023-02-15T04:02:55;3.80;;;2.63;;
14167;SDS011;7163;50.626;12.922;2023-02-15T04:08:02;4.00;;;2.97;;
14167;SDS011;7163;50.626;12.922;2023-02-15T04:13:03;3.30;;;2.90;;
14167;SDS011;7163;50.626;12.922;2023-02-15T04:18:03;10.83;;;6.83;;
14167;SDS011;7163;50.626;12.922;2023-02-15T04:23:05;25.00;;;12.07;;
14167;SDS011;7163;50.626;12.922;2023-02-15T04:28:25;32.70;;;14.43;;
14167;SDS011;7163;50.626;12.922;2023-02-15T04:33:25;49.57;;;19.97;;
14167;SDS011;7163;50.626;12.922;2023-02-15T04:38:25;18.10;;;9.87;;
14167;SDS011;7163;50.626;12.922;2023-02-15T04:43:26;50.70;;;19.47;;
14167;SDS011;7163;50.626;12.922;2023-02-15T04:48:26;74.63;;;30.27;;
14167;SDS011;7163;50.626;12.922;2023-02-15T04:53:27;12.33;;;6.83;;
14167;SDS011;7163;50.626;12.922;2023-02-15T04:58:27;7.27;;;4.10;;
14167;SDS011;7163;50.626;12.922;2023-02-15T05:03:27;8.73;;;4.63;;
14167;SDS011;7163;50.626;12.922;2023-02-15T05:08:28;21.13;;;8.07;;
14167;SDS011;7163;50.626;12.922;2023-02-15T05:13:28;6.27;;;4.30;;
14167;SDS011;7163;50.626;12.922;2023-02-15T05:18:28;5.83;;;4.13;;
14167;SDS011;7163;50.626;12.922;2023-02-15T05:23:32;5.23;;;3.83;;
14167;SDS011;7163;50.626;12.922;2023-02-15T05:28:32;85.37;;;28.13;;
14167;SDS011;7163;50.626;12.922;2023-02-15T05:33:33;43.43;;;19.90;;
14167;SDS011;7163;50.626;12.922;2023-02-15T05:38:34;24.13;;;9.63;;
14167;SDS011;7163;50.626;12.922;2023-02-15T05:43:37;53.63;;;20.83;;
14167;SDS011;7163;50.626;12.922;2023-02-15T05:48:37;17.63;;;7.53;;
14167;SDS011;7163;50.626;12.922;2023-02-15T05:53:38;27.00;;;10.43;;
14167;SDS011;7163;50.626;12.922;2023-02-15T05:58:39;13.07;;;4.33;;
14167;SDS011;7163;50.626;12.922;2023-02-15T06:03:40;20.97;;;9.83;;
14167;SDS011;7163;50.626;12.922;2023-02-15T06:08:41;5.00;;;3.47;;
14167;SDS011;7163;50.626;12.922;2023-02-15T06:13:41;8.70;;;4.90;;
14167;SDS011;7163;50.626;12.922;2023-02-15T06:18:42;12.40;;;5.73;;
14167;SDS011;7163;50.626;12.922;2023-02-15T06:23:45;15.23;;;7.57;;
14167;SDS011;7163;50.626;12.922;2023-02-15T06:28:46;22.77;;;8.70;;
14167;SDS011;7163;50.626;12.922;2023-02-15T06:33:47;17.10;;;7.23;;
14167;SDS011;7163;50.626;12.922;2023-02-15T06:38:47;21.03;;;11.10;;
14167;SDS011;7163;50.626;12.922;2023-02-15T06:43:48;13.83;;;6.97;;
14167;SDS011;7163;50.626;12.922;2023-02-15T06:48:48;53.17;;;31.03;;
14167;SDS011;7163;50.626;12.922;2023-02-15T06:53:49;19.07;;;10.03;;
14167;SDS011;7163;50.626;12.922;2023-02-15T06:58:49;21.03;;;9.93;;
14167;SDS011;7163;50.626;12.922;2023-02-15T07:03:50;15.27;;;8.03;;
14167;SDS011;7163;50.626;12.922;2023-02-15T07:08:50;13.00;;;6.53;;
14167;SDS011;7163;50.626;12.922;2023-02-15T07:13:53;9.83;;;5.20;;
14167;SDS011;7163;50.626;12.922;2023-02-15T07:18:55;10.47;;;6.23;;
14167;SDS011;7163;50.626;12.922;2023-02-15T07:23:56;8.03;;;5.20;;
14167;SDS011;7163;50.626;12.922;2023-02-15T07:28:57;8.53;;;5.60;;
14167;SDS011;7163;50.626;12.922;2023-02-15T07:33:58;11.07;;;7.20;;
14167;SDS011;7163;50.626;12.922;2023-02-15T07:38:59;13.07;;;7.27;;
14167;SDS011;7163;50.626;12.922;2023-02-15T07:44:00;13.17;;;6.43;;
14167;SDS011;7163;50.626;12.922;2023-02-15T07:49:00;14.40;;;6.90;;
14167;SDS011;7163;50.626;12.922;2023-02-15T07:54:00;9.07;;;4.80;;
14167;SDS011;7163;50.626;12.922;2023-02-15T07:59:01;15.77;;;8.40;;
14167;SDS011;7163;50.626;12.922;2023-02-15T08:04:03;7.87;;;5.77;;
14167;SDS011;7163;50.626;12.922;2023-02-15T08:09:06;10.33;;;6.37;;
14167;SDS011;7163;50.626;12.922;2023-02-15T08:14:14;7.60;;;5.03;;
14167;SDS011;7163;50.626;12.922;2023-02-15T08:19:19;7.50;;;5.50;;
14167;SDS011;7163;50.626;12.922;2023-02-15T08:24:24;16.63;;;8.80;;
14167;SDS011;7163;50.626;12.922;2023-02-15T08:29:27;23.13;;;13.30;;
14167;SDS011;7163;50.626;12.922;2023-02-15T08:34:29;16.93;;;10.37;;
14167;SDS011;7163;50.626;12.922;2023-02-15T08:39:30;14.63;;;9.30;;
14167;SDS011;7163;50.626;12.922;2023-02-15T08:44:31;17.00;;;12.23;;
14167;SDS011;7163;50.626;12.922;2023-02-15T08:49:31;15.10;;;7.20;;
14167;SDS011;7163;50.626;12.922;2023-02-15T08:54:32;18.87;;;10.63;;
14167;SDS011;7163;50.626;12.922;2023-02-15T08:59:33;18.50;;;11.03;;
14167;SDS011;7163;50.626;12.922;2023-02-15T09:04:33;23.87;;;12.13;;
14167;SDS011;7163;50.626;12.922;2023-02-15T09:09:34;21.97;;;11.97;;
14167;SDS011;7163;50.626;12.922;2023-02-15T09:14:37;19.47;;;11.23;;
14167;SDS011;7163;50.626;12.922;2023-02-15T09:19:37;17.40;;;11.63;;
14167;SDS011;7163;50.626;12.922;2023-02-15T09:24:37;17.30;;;9.97;;
14167;SDS011;7163;50.626;12.922;2023-02-15T09:29:38;16.43;;;9.37;;
14167;SDS011;7163;50.626;12.922;2023-02-15T09:34:39;23.03;;;12.80;;
14167;SDS011;7163;50.626;12.922;2023-02-15T09:39:40;19.50;;;12.47;;
14167;SDS011;7163;50.626;12.922;2023-02-15T09:44:57;17.43;;;12.07;;
14167;SDS011;7163;50.626;12.922;2023-02-15T10:01:09;24.67;;;15.05;;
14167;SDS011;7163;50.626;12.922;2023-02-15T10:22:34;9.77;;;4.55;;
14167;SDS011;7163;50.626;12.922;2023-02-15T10:27:44;1.90;;;1.60;;
14167;SDS011;7163;50.626;12.922;2023-02-15T10:32:53;2.08;;;1.33;;
14167;SDS011;7163;50.626;12.922;2023-02-15T10:38:05;8.80;;;2.33;;
14167;SDS011;7163;50.626;12.922;2023-02-15T10:54:05;2.85;;;1.38;;
14167;SDS011;7163;50.626;12.922;2023-02-15T11:04:44;1.27;;;1.17;;
14167;SDS011;7163;50.626;12.922;2023-02-15T11:10:04;5.00;;;1.80;;
14167;SDS011;7163;50.626;12.922;2023-02-15T11:15:27;3.58;;;1.20;;
14167;SDS011;7163;50.626;12.922;2023-02-15T11:20:33;1.90;;;1.17;;
14167;SDS011;7163;50.626;12.922;2023-02-15T11:25:37;3.90;;;1.45;;
14167;SDS011;7163;50.626;12.922;2023-02-15T11:30:41;3.90;;;1.92;;
14167;SDS011;7163;50.626;12.922;2023-02-15T11:35:55;2.45;;;1.75;;
14167;SDS011;7163;50.626;12.922;2023-02-15T11:41:31;3.03;;;1.80;;
14167;SDS011;7163;50.626;12.922;2023-02-15T11:46:25;20.35;;;2.97;;
14167;SDS011;7163;50.626;12.922;2023-02-15T11:51:25;4.75;;;1.80;;
14167;SDS011;7163;50.626;12.922;2023-02-15T11:56:30;2.80;;;1.60;;
14167;SDS011;7163;50.626;12.922;2023-02-15T12:01:34;5.20;;;1.33;;
14167;SDS011;7163;50.626;12.922;2023-02-15T12:07:11;10.25;;;3.83;;
14167;SDS011;7163;50.626;12.922;2023-02-15T12:18:18;5.80;;;1.90;;
14167;SDS011;7163;50.626;12.922;2023-02-15T12:23:31;4.20;;;2.17;;
14167;SDS011;7163;50.626;12.922;2023-02-15T12:28:36;3.67;;;1.85;;
14167;SDS011;7163;50.626;12.922;2023-02-15T12:33:39;2.88;;;1.48;;
14167;SDS011;7163;50.626;12.922;2023-02-15T12:39:05;7.28;;;2.10;;
14167;SDS011;7163;50.626;12.922;2023-02-15T12:44:18;4.13;;;1.92;;
14167;SDS011;7163;50.626;12.922;2023-02-15T12:49:23;9.45;;;3.88;;
14167;SDS011;7163;50.626;12.922;2023-02-15T12:54:27;2.85;;;2.00;;
14167;SDS011;7163;50.626;12.922;2023-02-15T12:59:35;3.10;;;1.70;;
14167;SDS011;7163;50.626;12.922;2023-02-15T13:04:37;2.95;;;1.80;;
14167;SDS011;7163;50.626;12.922;2023-02-15T13:09:49;6.07;;;2.72;;
14167;SDS011;7163;50.626;12.922;2023-02-15T13:14:50;7.75;;;3.83;;
14167;SDS011;7163;50.626;12.922;2023-02-15T13:19:54;7.07;;;3.50;;
14167;SDS011;7163;50.626;12.922;2023-02-15T13:24:58;6.93;;;3.35;;
14167;SDS011;7163;50.626;12.922;2023-02-15T13:30:00;15.73;;;3.72;;
14167;SDS011;7163;50.626;12.922;2023-02-15T13:35:04;10.55;;;2.90;;
14167;SDS011;7163;50.626;12.922;2023-02-15T14:06:56;6.15;;;2.33;;
14167;SDS011;7163;50.626;12.922;2023-02-15T14:17:29;8.40;;;2.00;;
14167;SDS011;7163;50.626;12.922;2023-02-15T14:22:41;3.88;;;1.90;;
14167;SDS011;7163;50.626;12.922;2023-02-15T14:28:05;6.80;;;2.60;;
14167;SDS011;7163;50.626;12.922;2023-02-15T14:33:32;4.50;;;2.58;;
14167;SDS011;7163;50.626;12.922;2023-02-15T14:38:56;4.47;;;2.25;;
14167;SDS011;7163;50.626;12.922;2023-02-15T14:44:37;7.18;;;2.95;;
14167;SDS011;7163;50.626;12.922;2023-02-15T14:49:40;4.43;;;2.22;;
14167;SDS011;7163;50.626;12.922;2023-02-15T15:25:51;6.78;;;4.05;;
14167;SDS011;7163;50.626;12.922;2023-02-15T15:30:52;10.05;;;5.32;;
14167;SDS011;7163;50.626;12.922;2023-02-15T15:41:17;17.25;;;11.38;;
14167;SDS011;7163;50.626;12.922;2023-02-15T15:51:32;19.50;;;9.80;;
14167;SDS011;7163;50.626;12.922;2023-02-15T15:56:34;30.10;;;16.63;;
14167;SDS011;7163;50.626;12.922;2023-02-15T16:01:39;34.13;;;21.60;;
14167;SDS011;7163;50.626;12.922;2023-02-15T16:06:41;23.60;;;12.03;;
14167;SDS011;7163;50.626;12.922;2023-02-15T16:11:41;44.87;;;23.80;;
14167;SDS011;7163;50.626;12.922;2023-02-15T16:16:46;445.87;;;173.73;;
14167;SDS011;7163;50.626;12.922;2023-02-15T16:21:50;578.13;;;258.67;;
14167;SDS011;7163;50.626;12.922;2023-02-15T16:27:04;97.70;;;47.87;;
14167;SDS011;7163;50.626;12.922;2023-02-15T16:37:24;56.00;;;31.70;;
14167;SDS011;7163;50.626;12.922;2023-02-15T16:42:31;19.37;;;11.27;;
14167;SDS011;7163;50.626;12.922;2023-02-15T16:47:31;63.17;;;34.77;;
14167;SDS011;7163;50.626;12.922;2023-02-15T16:52:33;37.83;;;18.77;;
14167;SDS011;7163;50.626;12.922;2023-02-15T16:57:37;36.73;;;20.57;;
14167;SDS011;7163;50.626;12.922;2023-02-15T17:02:38;42.63;;;21.53;;
14167;SDS011;7163;50.626;12.922;2023-02-15T17:13:03;38.87;;;21.53;;
14167;SDS011;7163;50.626;12.922;2023-02-15T17:18:05;52.73;;;27.13;;
14167;SDS011;7163;50.626;12.922;2023-02-15T17:28:30;62.73;;;33.13;;
14167;SDS011;7163;50.626;12.922;2023-02-15T17:38:35;56.40;;;29.37;;
14167;SDS011;7163;50.626;12.922;2023-02-15T17:43:36;88.53;;;39.20;;
14167;SDS011;7163;50.626;12.922;2023-02-15T17:48:37;73.03;;;34.60;;
14167;SDS011;7163;50.626;12.922;2023-02-15T17:53:40;88.40;;;39.73;;
14167;SDS011;7163;50.626;12.922;2023-02-15T17:59:00;130.30;;;58.23;;
14167;SDS011;7163;50.626;12.922;2023-02-15T18:04:01;145.60;;;67.07;;
14167;SDS011;7163;50.626;12.922;2023-02-15T18:09:20;41.07;;;23.00;;
14167;SDS011;7163;50.626;12.922;2023-02-15T18:14:40;31.63;;;16.67;;
14167;SDS011;7163;50.626;12.922;2023-02-15T18:19:41;19.23;;;10.40;;
14167;SDS011;7163;50.626;12.922;2023-02-15T18:24:42;11.33;;;7.00;;
14167;SDS011;7163;50.626;12.922;2023-02-15T18:29:45;10.20;;;5.57;;
14167;SDS011;7163;50.626;12.922;2023-02-15T18:34:45;10.60;;;6.40;;
14167;SDS011;7163;50.626;12.922;2023-02-15T18:39:47;9.40;;;6.37;;
14167;SDS011;7163;50.626;12.922;2023-02-15T18:44:49;9.23;;;5.40;;
14167;SDS011;7163;50.626;12.922;2023-02-15T18:49:54;13.60;;;7.30;;
14167;SDS011;7163;50.626;12.922;2023-02-15T18:54:56;8.57;;;4.83;;
14167;SDS011;7163;50.626;12.922;2023-02-15T19:00:00;6.50;;;4.17;;
14167;SDS011;7163;50.626;12.922;2023-02-15T19:05:01;11.90;;;5.63;;
14167;SDS011;7163;50.626;12.922;2023-02-15T19:10:01;21.57;;;9.10;;
14167;SDS011;7163;50.626;12.922;2023-02-15T19:15:04;11.80;;;4.83;;
14167;SDS011;7163;50.626;12.922;2023-02-15T19:20:05;8.43;;;4.40;;
14167;SDS011;7163;50.626;12.922;2023-02-15T19:25:07;24.03;;;10.93;;
14167;SDS011;7163;50.626;12.922;2023-02-15T19:30:18;9.40;;;5.17;;
14167;SDS011;7163;50.626;12.922;2023-02-15T19:35:21;8.87;;;4.67;;
14167;SDS011;7163;50.626;12.922;2023-02-15T19:40:29;8.00;;;4.73;;
14167;SDS011;7163;50.626;12.922;2023-02-15T19:45:32;26.77;;;10.97;;
14167;SDS011;7163;50.626;12.922;2023-02-15T19:50:32;19.70;;;9.20;;
14167;SDS011;7163;50.626;12.922;2023-02-15T19:55:33;21.97;;;11.53;;
14167;SDS011;7163;50.626;12.922;2023-02-15T20:00:34;14.73;;;8.20;;
14167;SDS011;7163;50.626;12.922;2023-02-15T20:05:35;16.80;;;8.83;;
14167;SDS011;7163;50.626;12.922;2023-02-15T20:10:37;14.53;;;6.93;;
14167;SDS011;7163;50.626;12.922;2023-02-15T20:15:38;13.77;;;7.30;;
14167;SDS011;7163;50.626;12.922;2023-02-15T20:20:43;12.40;;;7.40;;
14167;SDS011;7163;50.626;12.922;2023-02-15T20:25:46;11.20;;;6.67;;
14167;SDS011;7163;50.626;12.922;2023-02-15T20:30:47;15.00;;;8.10;;
14167;SDS011;7163;50.626;12.922;2023-02-15T20:35:48;12.27;;;7.90;;
14167;SDS011;7163;50.626;12.922;2023-02-15T20:40:49;12.23;;;5.60;;
14167;SDS011;7163;50.626;12.922;2023-02-15T20:46:09;9.67;;;5.83;;
14167;SDS011;7163;50.626;12.922;2023-02-15T20:51:16;11.40;;;6.63;;
14167;SDS011;7163;50.626;12.922;2023-02-15T21:01:21;11.13;;;6.40;;
14167;SDS011;7163;50.626;12.922;2023-02-15T21:06:22;12.43;;;6.33;;
14167;SDS011;7163;50.626;12.922;2023-02-15T21:11:22;12.27;;;6.90;;
14167;SDS011;7163;50.626;12.922;2023-02-15T21:16:23;17.50;;;9.07;;
14167;SDS011;7163;50.626;12.922;2023-02-15T21:21:23;20.67;;;10.77;;
14167;SDS011;7163;50.626;12.922;2023-02-15T21:26:24;22.77;;;10.07;;
14167;SDS011;7163;50.626;12.922;2023-02-15T21:31:24;14.63;;;7.93;;
14167;SDS011;7163;50.626;12.922;2023-02-15T21:36:25;13.00;;;7.23;;
14167;SDS011;7163;50.626;12.922;2023-02-15T21:41:26;9.50;;;5.43;;
14167;SDS011;7163;50.626;12.922;2023-02-15T21:46:45;7.37;;;4.33;;
14167;SDS011;7163;50.626;12.922;2023-02-15T21:52:04;5.47;;;3.90;;
14167;SDS011;7163;50.626;12.922;2023-02-15T21:57:14;9.00;;;3.77;;
14167;SDS011;7163;50.626;12.922;2023-02-15T22:02:26;4.07;;;3.30;;
14167;SDS011;7163;50.626;12.922;2023-02-15T22:07:28;4.63;;;3.40;;
14167;SDS011;7163;50.626;12.922;2023-02-15T22:12:28;4.77;;;3.07;;
14167;SDS011;7163;50.626;12.922;2023-02-15T22:17:29;4.03;;;2.90;;
14167;SDS011;7163;50.626;12.922;2023-02-15T22:22:33;9.10;;;4.93;;
14167;SDS011;7163;50.626;12.922;2023-02-15T22:27:34;7.13;;;4.20;;
14167;SDS011;7163;50.626;12.922;2023-02-15T22:32:37;7.20;;;4.67;;
14167;SDS011;7163;50.626;12.922;2023-02-15T22:37:38;9.10;;;5.33;;
14167;SDS011;7163;50.626;12.922;2023-02-15T22:42:38;9.07;;;4.77;;
14167;SDS011;7163;50.626;12.922;2023-02-15T22:47:38;5.53;;;3.60;;
14167;SDS011;7163;50.626;12.922;2023-02-15T22:52:39;7.57;;;3.70;;
14167;SDS011;7163;50.626;12.922;2023-02-15T22:57:39;15.67;;;7.33;;
14167;SDS011;7163;50.626;12.922;2023-02-15T23:02:40;17.23;;;8.10;;
14167;SDS011;7163;50.626;12.922;2023-02-15T23:07:41;13.50;;;6.67;;
14167;SDS011;7163;50.626;12.922;2023-02-15T23:12:41;11.40;;;5.97;;
14167;SDS011;7163;50.626;12.922;2023-02-15T23:18:14;10.43;;;5.53;;
14167;SDS011;7163;50.626;12.922;2023-02-15T23:23:38;11.90;;;5.77;;
14167;SDS011;7163;50.626;12.922;2023-02-15T23:28:40;10.03;;;6.03;;
14167;SDS011;7163;50.626;12.922;2023-02-15T23:33:40;8.20;;;5.07;;
14167;SDS011;7163;50.626;12.922;2023-02-15T23:38:41;9.53;;;5.17;;
14167;SDS011;7163;50.626;12.922;2023-02-15T23:43:42;8.97;;;5.03;;
14167;SDS011;7163;50.626;12.922;2023-02-15T23:48:45;9.00;;;4.60;;
14167;SDS011;7163;50.626;12.922;2023-02-15T23:53:47;5.60;;;4.23;;
14167;SDS011;7163;50.626;12.922;2023-02-15T23:58:47;8.00;;;4.37;;
